Time;durP1;ratioP1;P1;durP2;ratioP2;P2;SDS_P1;SDS_P2;PMS_P1;PMS_P2;Temp;Humidity;BMP_temperature;BMP_pressure;BME280_temperature;BME280_humidity;BME280_pressure;Samples;Min_cycle;Max_cycle;Signal;HPM_P1;HPM_P2
2022/09/24 00:02:03;;;;;;;8.43;7.73;;;23.60;61.00;;;;;;5083926;28;20451;-83
2022/09/24 00:04:31;;;;;;;8.43;7.63;;;23.60;61.00;;;;;;5092816;28;20461;-83
2022/09/24 00:07:00;;;;;;;9.50;8.70;;;23.50;61.00;;;;;;5093279;28;20430;-83
2022/09/24 00:09:30;;;;;;;8.30;7.70;;;23.50;61.00;;;;;;5074224;28;20484;-83
2022/09/24 00:11:59;;;;;;;8.63;7.93;;;23.50;61.00;;;;;;5091628;28;20488;-83
2022/09/24 00:14:27;;;;;;;9.10;8.40;;;23.50;61.10;;;;;;5092034;28;20449;-84
2022/09/24 00:16:56;;;;;;;8.17;7.57;;;23.50;61.10;;;;;;5092826;28;20441;-84
2022/09/24 00:19:24;;;;;;;7.97;7.37;;;23.50;61.10;;;;;;5093254;28;20465;-83
2022/09/24 00:21:52;;;;;;;9.67;8.87;;;23.50;61.10;;;;;;5092792;28;20776;-84
2022/09/24 00:27:07;;;;;;;8.57;7.80;;;23.50;61.10;;;;;;5073053;28;20911;-83
2022/09/24 00:29:36;;;;;;;8.80;8.10;;;23.40;61.10;;;;;;5072942;28;20476;-83
2022/09/24 00:32:05;;;;;;;9.23;8.40;;;23.40;61.20;;;;;;5073999;28;20411;-83
2022/09/24 00:34:33;;;;;;;7.40;6.90;;;23.40;61.20;;;;;;5076675;28;20445;-83
2022/09/24 00:37:01;;;;;;;8.87;8.20;;;23.40;61.10;;;;;;5077132;28;20456;-83
2022/09/24 00:39:31;;;;;;;8.17;7.47;;;23.40;61.20;;;;;;5076690;28;20434;-82
2022/09/24 00:41:59;;;;;;;9.20;8.50;;;23.40;61.20;;;;;;5080021;28;20473;-83
2022/09/24 00:44:54;;;;;;;7.80;7.30;;;23.40;61.20;;;;;;5095389;28;20591;-83
2022/09/24 00:47:35;;;;;;;9.60;8.77;;;23.40;61.20;;;;;;5096654;28;20889;-83
2022/09/24 00:50:14;;;;;;;9.00;8.10;;;23.30;61.20;;;;;;5095155;28;20551;-85
2022/09/24 00:52:46;;;;;;;8.73;8.03;;;23.30;61.20;;;;;;5096533;28;20433;-84
2022/09/24 00:55:18;;;;;;;7.40;6.80;;;23.30;61.30;;;;;;5058066;28;20466;-84
2022/09/24 00:57:48;;;;;;;8.80;8.10;;;23.30;61.20;;;;;;5087874;28;20456;-83
2022/09/24 01:00:18;;;;;;;7.77;7.17;;;23.30;61.20;;;;;;5097358;28;20741;-84
2022/09/24 01:02:49;;;;;;;9.27;8.37;;;23.30;61.20;;;;;;5095557;28;20510;-84
2022/09/24 01:05:18;;;;;;;7.50;6.93;;;23.30;61.30;;;;;;5096383;28;20449;-83
2022/09/24 01:07:47;;;;;;;7.17;6.57;;;23.30;61.30;;;;;;5095202;28;20445;-84
2022/09/24 01:13:13;;;;;;;7.87;7.27;;;23.20;61.30;;;;;;5094257;28;20490;-83
2022/09/24 01:15:47;;;;;;;6.87;6.37;;;23.20;61.30;;;;;;5096132;28;20445;-83
2022/09/24 01:18:25;;;;;;;7.23;6.70;;;23.20;61.30;;;;;;5077877;28;20453;-84
2022/09/24 01:21:10;;;;;;;7.50;7.00;;;23.20;61.30;;;;;;5095832;28;20796;-86
2022/09/24 01:24:03;;;;;;;8.07;7.43;;;23.20;61.20;;;;;;5095775;28;20479;-86
2022/09/24 01:26:45;;;;;;;8.87;7.97;;;23.20;61.30;;;;;;5096334;28;20421;-85
2022/09/24 01:29:40;;;;;;;7.90;7.17;;;23.20;61.30;;;;;;5095545;28;20413;-85
2022/09/24 01:32:16;;;;;;;7.90;7.30;;;23.20;61.30;;;;;;5096390;28;20421;-85
2022/09/24 01:34:49;;;;;;;7.60;6.90;;;23.20;61.30;;;;;;5094885;28;20483;-85
2022/09/24 01:37:21;;;;;;;9.03;8.33;;;23.20;61.40;;;;;;5085531;28;20832;-86
2022/09/24 01:39:52;;;;;;;7.57;6.87;;;23.20;61.40;;;;;;5095152;28;20439;-85
2022/09/24 01:42:22;;;;;;;8.73;7.93;;;23.20;61.30;;;;;;5092905;28;20480;-86
2022/09/24 01:44:51;;;;;;;9.80;9.10;;;23.20;61.40;;;;;;5090513;28;20468;-86
2022/09/24 01:47:25;;;;;;;8.73;8.13;;;23.20;61.40;;;;;;5079423;28;20559;-85
2022/09/24 01:50:01;;;;;;;9.40;8.70;;;23.20;61.30;;;;;;5095481;28;20504;-86
2022/09/24 01:52:34;;;;;;;8.50;7.80;;;23.20;61.40;;;;;;5095361;28;20437;-85
2022/09/24 01:55:05;;;;;;;8.60;7.90;;;23.10;61.30;;;;;;5095226;28;20418;-85
2022/09/24 01:57:39;;;;;;;8.07;7.10;;;23.10;61.30;;;;;;5096374;28;20426;-85
2022/09/24 02:00:13;;;;;;;8.50;7.90;;;23.10;61.40;;;;;;5095221;28;20433;-85
2022/09/24 02:02:46;;;;;;;8.73;8.03;;;23.10;61.40;;;;;;5094815;28;20457;-85
2022/09/24 02:05:20;;;;;;;9.00;8.10;;;23.10;61.40;;;;;;5095677;28;20468;-85
2022/09/24 02:07:57;;;;;;;9.20;8.50;;;23.10;61.40;;;;;;5094156;28;20453;-85
2022/09/24 02:10:29;;;;;;;8.20;7.60;;;23.10;61.40;;;;;;5095002;28;20504;-85
2022/09/24 02:13:03;;;;;;;8.27;7.57;;;23.10;61.40;;;;;;5095703;28;20486;-87
2022/09/24 02:15:37;;;;;;;8.87;8.17;;;23.10;61.40;;;;;;5094990;28;20454;-85
2022/09/24 02:18:09;;;;;;;9.47;8.00;;;23.10;61.40;;;;;;5095023;28;20832;-85
2022/09/24 02:20:41;;;;;;;8.70;7.93;;;23.10;61.40;;;;;;5076255;28;20456;-85
2022/09/24 02:23:10;;;;;;;8.40;7.70;;;23.10;61.40;;;;;;5094915;28;20458;-85
2022/09/24 02:25:43;;;;;;;8.70;7.90;;;23.10;61.40;;;;;;5093132;28;20596;-85
2022/09/24 02:28:12;;;;;;;8.03;7.30;;;23.10;61.50;;;;;;5094754;28;20967;-85
2022/09/24 02:30:45;;;;;;;9.57;8.80;;;23.10;61.40;;;;;;5095133;28;20440;-85
2022/09/24 02:36:02;;;;;;;7.37;6.77;;;23.10;61.40;;;;;;5095204;28;20451;-85
2022/09/24 02:38:30;;;;;;;9.30;8.40;;;23.10;61.40;;;;;;5094810;28;20414;-85
2022/09/24 02:40:59;;;;;;;10.07;9.17;;;23.10;61.40;;;;;;5094490;28;20426;-85
2022/09/24 02:43:27;;;;;;;9.30;8.40;;;23.10;61.40;;;;;;5094652;28;20798;-85
2022/09/24 02:45:56;;;;;;;8.50;7.80;;;23.10;61.40;;;;;;5094992;28;20462;-85
2022/09/24 02:48:25;;;;;;;8.77;8.07;;;23.10;61.40;;;;;;5094390;28;20501;-85
2022/09/24 02:50:54;;;;;;;7.93;7.30;;;23.10;61.40;;;;;;5094533;28;20440;-85
2022/09/24 02:53:22;;;;;;;8.67;8.07;;;23.10;61.40;;;;;;5094657;28;20426;-85
2022/09/24 02:55:50;;;;;;;7.73;7.23;;;23.00;61.40;;;;;;5092857;28;20464;-85
2022/09/24 02:58:18;;;;;;;8.33;7.70;;;23.00;61.40;;;;;;5090213;28;20905;-85
2022/09/24 03:00:46;;;;;;;8.63;7.87;;;23.10;61.40;;;;;;5072742;28;20455;-86
2022/09/24 03:03:16;;;;;;;7.50;7.00;;;23.00;61.30;;;;;;5080352;28;20470;-85
2022/09/24 03:05:44;;;;;;;7.90;7.30;;;23.00;61.40;;;;;;5093689;28;20530;-85
2022/09/24 03:08:13;;;;;;;7.90;7.30;;;23.00;61.30;;;;;;5094064;28;20436;-85
2022/09/24 03:10:41;;;;;;;7.67;6.97;;;23.00;61.40;;;;;;5094113;28;20433;-85
2022/09/24 03:13:10;;;;;;;7.40;6.80;;;23.00;61.40;;;;;;5093799;28;20512;-85
2022/09/24 03:15:39;;;;;;;8.10;7.40;;;23.00;61.30;;;;;;5093827;28;20787;-85
2022/09/24 03:18:07;;;;;;;8.80;8.10;;;23.00;61.40;;;;;;5093729;28;20513;-86
2022/09/24 03:20:37;;;;;;;8.73;8.03;;;23.00;61.40;;;;;;5076396;28;20450;-85
2022/09/24 03:23:06;;;;;;;8.20;7.40;;;23.00;61.40;;;;;;5094202;28;20531;-85
2022/09/24 03:25:34;;;;;;;6.77;6.37;;;23.00;61.50;;;;;;5093702;28;20469;-85
2022/09/24 03:28:02;;;;;;;8.20;7.43;;;23.00;61.50;;;;;;5093722;28;20428;-85
2022/09/24 03:33:22;;;;;;;7.40;6.70;;;23.00;61.40;;;;;;5083010;28;20464;-85
2022/09/24 03:35:55;;;;;;;7.93;7.23;;;23.00;61.50;;;;;;5093882;28;20444;-85
2022/09/24 03:38:24;;;;;;;8.50;7.70;;;23.00;61.50;;;;;;5059091;28;20445;-86
2022/09/24 03:40:52;;;;;;;7.00;6.50;;;23.00;61.50;;;;;;5093774;28;20472;-85
2022/09/24 03:43:20;;;;;;;7.57;6.87;;;22.90;61.50;;;;;;5092727;28;20495;-85
2022/09/24 03:45:49;;;;;;;8.30;7.70;;;23.00;61.50;;;;;;5093522;28;20475;-85
2022/09/24 03:48:17;;;;;;;7.40;6.70;;;23.00;61.50;;;;;;5090756;28;20923;-85
2022/09/24 03:50:46;;;;;;;7.60;7.10;;;22.90;61.50;;;;;;5089290;28;20581;-85
2022/09/24 03:53:18;;;;;;;6.93;6.33;;;22.90;61.50;;;;;;5077190;28;20516;-82
2022/09/24 03:55:48;;;;;;;6.60;6.07;;;22.90;61.60;;;;;;5094364;28;20440;-83
2022/09/24 03:58:18;;;;;;;7.47;6.87;;;22.90;61.60;;;;;;5094198;28;20859;-83
2022/09/24 04:00:46;;;;;;;7.20;6.60;;;22.90;61.60;;;;;;5075994;28;20473;-83
2022/09/24 04:03:14;;;;;;;7.57;6.87;;;22.90;61.50;;;;;;5093836;28;20428;-84
2022/09/24 04:05:43;;;;;;;9.30;8.40;;;22.90;61.50;;;;;;5073901;28;20466;-83
2022/09/24 04:08:12;;;;;;;8.10;7.30;;;22.90;61.60;;;;;;5073731;28;20423;-83
2022/09/24 04:10:44;;;;;;;8.20;7.60;;;22.90;61.60;;;;;;5055201;28;20502;-83
2022/09/24 04:13:12;;;;;;;7.33;6.80;;;22.90;61.60;;;;;;5054723;28;20482;-83
2022/09/24 04:15:40;;;;;;;7.97;7.13;;;22.90;61.60;;;;;;5072898;28;20429;-83
2022/09/24 04:18:09;;;;;;;7.80;7.20;;;22.90;61.50;;;;;;5074199;28;20441;-85
2022/09/24 04:20:38;;;;;;;7.40;6.80;;;22.90;61.60;;;;;;5092759;28;20476;-83
2022/09/24 04:23:07;;;;;;;7.60;7.00;;;22.90;61.70;;;;;;5093235;28;20491;-83
2022/09/24 04:25:35;;;;;;;7.33;6.73;;;22.90;61.70;;;;;;5091717;28;20472;-83
2022/09/24 04:28:07;;;;;;;8.53;7.80;;;22.90;61.70;;;;;;5093124;28;20788;-83
2022/09/24 04:30:36;;;;;;;6.97;6.47;;;22.90;61.70;;;;;;5090593;28;20472;-83
2022/09/24 04:33:05;;;;;;;7.83;7.20;;;22.90;61.70;;;;;;5093134;28;20451;-83
2022/09/24 04:35:34;;;;;;;8.00;7.30;;;22.90;61.80;;;;;;5093137;28;20413;-83
2022/09/24 04:38:03;;;;;;;6.23;5.83;;;22.90;61.80;;;;;;5092403;28;20488;-83
2022/09/24 04:40:33;;;;;;;6.67;6.00;;;22.90;61.80;;;;;;5093032;28;20447;-83
2022/09/24 04:43:06;;;;;;;7.10;6.53;;;22.90;61.70;;;;;;5093014;28;20467;-83
2022/09/24 04:45:34;;;;;;;7.23;6.63;;;22.90;61.80;;;;;;5093219;28;20931;-83
2022/09/24 04:48:02;;;;;;;6.90;6.40;;;22.90;61.80;;;;;;5092902;28;20769;-83
2022/09/24 04:50:32;;;;;;;10.00;6.87;;;22.90;61.80;;;;;;5074598;28;20548;-83
2022/09/24 04:53:01;;;;;;;7.97;7.27;;;22.80;61.90;;;;;;5092615;28;20456;-83
2022/09/24 04:55:30;;;;;;;7.93;7.23;;;22.80;61.90;;;;;;5092644;28;20417;-83
2022/09/24 04:57:59;;;;;;;7.60;7.00;;;22.80;61.90;;;;;;5092845;28;20432;-83
2022/09/24 05:00:30;;;;;;;8.40;7.70;;;22.80;61.90;;;;;;5073127;28;20466;-84
2022/09/24 05:02:59;;;;;;;6.93;6.43;;;22.80;62.00;;;;;;5092223;28;20528;-83
2022/09/24 05:05:27;;;;;;;6.53;6.03;;;22.80;62.00;;;;;;5091834;28;20575;-83
2022/09/24 05:07:57;;;;;;;7.10;6.60;;;22.80;62.00;;;;;;5088612;28;20911;-83
2022/09/24 05:10:26;;;;;;;9.33;7.63;;;22.80;62.00;;;;;;5085494;28;20438;-83
2022/09/24 05:12:55;;;;;;;7.67;6.97;;;22.80;62.00;;;;;;5078655;28;20532;-84
2022/09/24 05:15:24;;;;;;;6.93;6.43;;;22.80;62.00;;;;;;5092326;28;20430;-84
2022/09/24 05:17:53;;;;;;;6.57;6.03;;;22.80;62.00;;;;;;5093203;28;20929;-83
2022/09/24 05:20:22;;;;;;;6.20;5.80;;;22.80;62.00;;;;;;5095923;28;20441;-83
2022/09/24 05:22:51;;;;;;;6.60;6.03;;;22.80;62.00;;;;;;5096134;28;20544;-83
2022/09/24 05:25:21;;;;;;;6.13;5.63;;;22.80;62.00;;;;;;5080134;28;20421;-83
2022/09/24 05:27:49;;;;;;;7.77;7.17;;;22.80;62.00;;;;;;5078098;28;20462;-83
2022/09/24 05:30:20;;;;;;;6.73;6.23;;;22.90;62.00;;;;;;5075697;28;20409;-83
2022/09/24 05:32:51;;;;;;;6.73;6.27;;;22.90;62.00;;;;;;5075725;28;20893;-83
2022/09/24 05:35:22;;;;;;;7.60;7.00;;;22.80;62.00;;;;;;5075670;28;20422;-84
2022/09/24 05:37:52;;;;;;;7.23;6.73;;;22.80;62.00;;;;;;5076093;28;20426;-83
2022/09/24 05:43:07;;;;;;;6.40;5.83;;;22.80;62.00;;;;;;5088713;28;20448;-84
2022/09/24 05:45:35;;;;;;;8.20;7.60;;;22.80;62.00;;;;;;5086051;28;20539;-83
2022/09/24 05:48:03;;;;;;;6.13;5.70;;;22.80;62.00;;;;;;5076842;28;20524;-83
2022/09/24 05:50:33;;;;;;;6.97;6.47;;;22.80;62.00;;;;;;5095781;28;20451;-84
2022/09/24 05:53:02;;;;;;;6.03;5.50;;;22.80;62.00;;;;;;5095493;28;20442;-83
2022/09/24 05:55:32;;;;;;;6.80;6.20;;;22.80;62.00;;;;;;5094691;28;20795;-83
2022/09/24 05:58:09;;;;;;;6.97;6.47;;;22.80;62.00;;;;;;5078449;28;20436;-83
2022/09/24 06:00:37;;;;;;;5.17;4.77;;;22.80;62.10;;;;;;5095377;28;20429;-82
2022/09/24 06:03:07;;;;;;;7.80;7.20;;;22.80;62.10;;;;;;5095150;28;20456;-83
2022/09/24 06:05:37;;;;;;;6.43;5.83;;;22.80;62.00;;;;;;5077310;28;20453;-83
2022/09/24 06:08:07;;;;;;;6.33;5.83;;;22.80;62.10;;;;;;5098361;28;20449;-83
2022/09/24 06:10:36;;;;;;;5.77;5.27;;;22.80;62.10;;;;;;5097440;28;20452;-83
2022/09/24 06:13:04;;;;;;;5.83;5.43;;;22.80;62.10;;;;;;5088591;28;20461;-83
2022/09/24 06:15:33;;;;;;;6.90;6.30;;;22.80;62.10;;;;;;5095149;28;20444;-83
2022/09/24 06:18:01;;;;;;;7.97;7.33;;;22.80;62.10;;;;;;5094994;28;20924;-84
2022/09/24 06:20:30;;;;;;;7.50;6.90;;;22.80;62.10;;;;;;5095418;28;20463;-83
2022/09/24 06:22:59;;;;;;;6.47;6.00;;;22.90;62.10;;;;;;5094927;28;21044;-83
2022/09/24 06:25:28;;;;;;;7.07;6.47;;;22.80;62.10;;;;;;5103200;28;20431;-83
2022/09/24 06:27:59;;;;;;;4.90;4.60;;;22.80;62.10;;;;;;5095025;28;20464;-83
2022/09/24 06:30:29;;;;;;;6.87;6.20;;;22.80;62.10;;;;;;5092912;28;20449;-83
2022/09/24 06:33:03;;;;;;;6.57;6.13;;;22.80;62.10;;;;;;5094441;28;20433;-83
2022/09/24 06:35:31;;;;;;;6.27;5.67;;;22.90;62.10;;;;;;5094607;28;20444;-83
2022/09/24 06:38:01;;;;;;;5.23;4.93;;;22.90;62.10;;;;;;5094307;28;20462;-83
2022/09/24 06:40:29;;;;;;;4.93;4.63;;;22.90;62.10;;;;;;5076154;28;20445;-83
2022/09/24 06:43:04;;;;;;;7.77;7.03;;;22.90;62.00;;;;;;5090719;28;20496;-83
2022/09/24 06:45:32;;;;;;;5.17;4.77;;;22.90;62.00;;;;;;5090489;28;20439;-86
2022/09/24 06:48:02;;;;;;;5.07;4.73;;;22.90;61.90;;;;;;5068198;28;20476;-86
2022/09/24 06:50:33;;;;;;;4.83;4.43;;;22.90;61.90;;;;;;5087517;28;20556;-83
2022/09/24 06:53:06;;;;;;;4.50;4.20;;;23.00;61.80;;;;;;5092689;28;20923;-83
2022/09/24 06:55:34;;;;;;;4.40;4.10;;;23.00;61.70;;;;;;5090116;28;20543;-83
2022/09/24 06:58:05;;;;;;;5.20;4.80;;;23.00;61.70;;;;;;5093782;28;20434;-84
2022/09/24 07:00:34;;;;;;;4.63;4.33;;;23.00;61.70;;;;;;5091839;28;21311;-83
2022/09/24 07:03:02;;;;;;;4.50;4.20;;;23.00;61.60;;;;;;5089383;28;20451;-82
2022/09/24 07:05:31;;;;;;;4.40;4.20;;;23.00;61.60;;;;;;5100844;28;20924;-82
2022/09/24 07:07:59;;;;;;;4.80;4.50;;;23.00;61.60;;;;;;5085130;28;20483;-83
2022/09/24 07:10:31;;;;;;;4.20;3.90;;;23.00;61.60;;;;;;5084205;28;20789;-82
2022/09/24 07:12:59;;;;;;;5.30;4.80;;;23.10;61.60;;;;;;5095989;28;20487;-83
2022/09/24 07:15:27;;;;;;;4.13;3.83;;;23.10;61.60;;;;;;5093518;28;20449;-82
2022/09/24 07:17:56;;;;;;;4.90;4.60;;;23.10;61.60;;;;;;5084565;28;20457;-82
2022/09/24 07:20:26;;;;;;;4.73;4.40;;;23.10;61.60;;;;;;5092543;28;20444;-82
2022/09/24 07:22:55;;;;;;;9.63;6.13;;;23.10;61.60;;;;;;5072961;28;20453;-82
2022/09/24 07:25:23;;;;;;;4.70;4.40;;;23.10;61.90;;;;;;5084473;28;20533;-82
2022/09/24 07:27:53;;;;;;;4.60;4.30;;;23.10;61.80;;;;;;5081116;28;20563;-83
2022/09/24 07:30:21;;;;;;;4.80;4.50;;;23.10;61.80;;;;;;5083259;28;20537;-83
2022/09/24 07:32:54;;;;;;;4.53;4.23;;;23.10;61.80;;;;;;5088426;28;20559;-83
2022/09/24 07:35:23;;;;;;;4.80;4.30;;;23.10;61.70;;;;;;5087726;28;20787;-84
2022/09/24 07:37:57;;;;;;;4.47;4.17;;;23.10;61.70;;;;;;5088262;28;20458;-83
2022/09/24 07:40:26;;;;;;;4.53;4.23;;;23.10;61.70;;;;;;5063907;28;20456;-83
2022/09/24 07:42:56;;;;;;;5.23;4.60;;;23.10;61.70;;;;;;5085990;28;20939;-82
2022/09/24 07:45:26;;;;;;;4.40;4.10;;;23.10;61.70;;;;;;5089079;28;20449;-83
2022/09/24 07:47:59;;;;;;;5.50;5.10;;;23.10;61.70;;;;;;5090642;28;20466;-83
2022/09/24 07:50:29;;;;;;;6.70;6.10;;;23.10;61.90;;;;;;5073223;28;20457;-83
2022/09/24 07:52:58;;;;;;;6.30;5.13;;;23.10;62.00;;;;;;5090191;28;21543;-84
2022/09/24 07:55:27;;;;;;;5.30;4.90;;;23.10;62.00;;;;;;5077030;28;20460;-80
2022/09/24 07:57:57;;;;;;;4.87;4.57;;;23.10;62.00;;;;;;5080220;28;20455;-85
2022/09/24 08:00:25;;;;;;;6.03;5.50;;;23.10;62.00;;;;;;5075503;28;20449;-83
2022/09/24 08:02:55;;;;;;;5.33;4.93;;;23.10;62.10;;;;;;5075602;28;20461;-86
2022/09/24 08:05:24;;;;;;;5.57;5.17;;;23.00;62.00;;;;;;5076442;28;20499;-84
2022/09/24 08:07:53;;;;;;;6.23;5.40;;;23.00;62.00;;;;;;5084366;28;20556;-81
2022/09/24 08:10:21;;;;;;;3.93;3.63;;;23.00;62.10;;;;;;5073236;28;20461;-81
2022/09/24 08:12:50;;;;;;;5.83;5.43;;;23.00;61.90;;;;;;5079851;28;20572;-81
2022/09/24 08:15:21;;;;;;;4.37;4.07;;;23.00;62.10;;;;;;5082155;28;20448;-80
2022/09/24 08:17:49;;;;;;;5.50;5.10;;;23.00;62.10;;;;;;5079338;28;20476;-83
2022/09/24 08:20:19;;;;;;;5.47;5.10;;;23.00;62.10;;;;;;5057694;28;20450;-81
2022/09/24 08:22:48;;;;;;;4.30;3.90;;;23.00;62.10;;;;;;5078719;28;20457;-80
2022/09/24 08:25:16;;;;;;;4.23;3.93;;;23.00;61.90;;;;;;5078850;28;20543;-83
2022/09/24 08:27:44;;;;;;;5.63;5.23;;;23.00;61.90;;;;;;5085557;28;20538;-82
2022/09/24 08:30:13;;;;;;;4.10;3.80;;;23.00;62.10;;;;;;5068950;28;20975;-85
2022/09/24 08:32:46;;;;;;;4.47;4.20;;;23.00;61.90;;;;;;5091607;28;20464;-81
2022/09/24 08:35:15;;;;;;;3.67;3.47;;;23.00;61.90;;;;;;5092741;28;20447;-83
2022/09/24 08:37:43;;;;;;;4.40;4.10;;;23.00;61.80;;;;;;5100964;28;20456;-83
2022/09/24 08:40:18;;;;;;;6.13;5.63;;;23.00;61.80;;;;;;5092724;28;20443;-83
2022/09/24 08:42:51;;;;;;;5.37;5.03;;;23.00;62.30;;;;;;5091254;28;20922;-83
2022/09/24 08:48:14;;;;;;;8.53;7.83;;;23.00;62.20;;;;;;5071381;28;20491;-82
2022/09/24 08:50:49;;;;;;;9.80;8.90;;;23.00;62.40;;;;;;5068445;28;20457;-84
2022/09/24 08:53:23;;;;;;;4.10;3.80;;;23.00;62.50;;;;;;5091029;28;20444;-83
2022/09/24 08:55:54;;;;;;;5.60;5.20;;;23.00;62.00;;;;;;5077466;28;20452;-83
2022/09/24 08:58:34;;;;;;;3.83;3.43;;;23.00;62.30;;;;;;5062316;28;20721;-83
2022/09/24 09:01:21;;;;;;;5.03;4.73;;;23.00;62.10;;;;;;5077716;28;20451;-83
2022/09/24 09:03:56;;;;;;;4.87;4.47;;;23.00;62.40;;;;;;5090453;28;20444;-85
2022/09/24 09:06:52;;;;;;;5.60;5.20;;;23.00;62.30;;;;;;5090404;28;20502;-84
2022/09/24 09:09:23;;;;;;;4.13;3.93;;;23.00;62.10;;;;;;5074437;28;20478;-84
2022/09/24 09:12:01;;;;;;;4.07;3.77;;;23.00;62.30;;;;;;5075615;28;20509;-84
2022/09/24 09:14:39;;;;;;;5.10;4.60;;;23.00;61.90;;;;;;5080238;28;20456;-85
2022/09/24 09:17:21;;;;;;;3.70;3.50;;;23.00;62.00;;;;;;5095553;28;20524;-83
2022/09/24 09:19:56;;;;;;;3.60;3.40;;;23.00;61.90;;;;;;5096269;28;20508;-83
2022/09/24 09:22:29;;;;;;;3.60;3.30;;;23.00;61.90;;;;;;5086415;28;20461;-84
2022/09/24 09:25:02;;;;;;;3.60;3.40;;;23.10;61.80;;;;;;5094167;28;20565;-82
2022/09/24 09:27:31;;;;;;;3.47;3.23;;;23.10;61.80;;;;;;5095637;28;20793;-81
2022/09/24 09:30:04;;;;;;;3.80;3.60;;;23.10;61.70;;;;;;5086436;28;20532;-84
2022/09/24 09:32:47;;;;;;;6.43;4.60;;;23.10;61.90;;;;;;5072920;28;20463;-82
2022/09/24 09:35:21;;;;;;;4.23;4.00;;;23.10;62.50;;;;;;5088533;28;20460;-82
2022/09/24 09:37:55;;;;;;;4.77;4.33;;;23.10;62.40;;;;;;5095188;28;20982;-82
2022/09/24 09:40:31;;;;;;;7.23;4.50;;;23.10;62.80;;;;;;5094901;28;20980;-82
2022/09/24 09:43:02;;;;;;;5.20;4.80;;;23.10;62.90;;;;;;5087287;28;20506;-82
2022/09/24 09:45:38;;;;;;;6.00;5.50;;;23.20;62.70;;;;;;5088226;28;20455;-82
2022/09/24 09:48:11;;;;;;;8.03;5.20;;;23.10;63.00;;;;;;5086496;28;20520;-83
2022/09/24 09:50:46;;;;;;;6.60;6.10;;;23.10;63.00;;;;;;5084630;28;20492;-83
2022/09/24 09:53:21;;;;;;;7.30;5.80;;;23.10;63.60;;;;;;5092506;28;20444;-83
2022/09/24 09:55:55;;;;;;;7.90;5.20;;;23.10;63.50;;;;;;5094270;28;20449;-82
2022/09/24 09:58:25;;;;;;;6.43;4.87;;;23.10;63.40;;;;;;5093200;28;20451;-83
2022/09/24 10:01:04;;;;;;;6.63;6.00;;;23.10;63.50;;;;;;5090297;28;20488;-82
2022/09/24 10:03:39;;;;;;;7.13;6.53;;;23.10;63.30;;;;;;5086313;28;20536;-82
2022/09/24 10:06:11;;;;;;;6.17;5.40;;;23.10;63.50;;;;;;5091803;28;20486;-83
2022/09/24 10:08:40;;;;;;;5.40;5.10;;;23.10;63.30;;;;;;5086912;28;20474;-82
2022/09/24 10:11:15;;;;;;;5.00;4.20;;;23.10;63.40;;;;;;5091716;28;20791;-81
2022/09/24 10:13:44;;;;;;;6.00;5.33;;;23.10;63.40;;;;;;5081796;28;20546;-80
2022/09/24 10:16:15;;;;;;;6.63;6.03;;;23.10;63.70;;;;;;5080878;28;20444;-81
2022/09/24 10:18:47;;;;;;;8.77;7.97;;;23.10;64.10;;;;;;5087838;28;21242;-83
2022/09/24 10:21:31;;;;;;;6.60;6.00;;;23.10;64.30;;;;;;5080907;28;20564;-82
2022/09/24 10:24:01;;;;;;;7.23;6.23;;;23.10;64.00;;;;;;5082905;28;20445;-82
2022/09/24 10:26:37;;;;;;;7.90;6.50;;;23.10;64.50;;;;;;5083298;28;20449;-79
2022/09/24 10:32:03;;;;;;;6.20;5.60;;;23.10;64.40;;;;;;5075117;28;20527;-79
2022/09/24 10:34:31;;;;;;;6.67;6.03;;;23.10;64.60;;;;;;5082927;28;20616;-79
2022/09/24 10:37:03;;;;;;;6.50;5.00;;;23.10;64.40;;;;;;5091299;28;20447;-80
2022/09/24 10:39:38;;;;;;;12.87;9.90;;;23.10;64.10;;;;;;5087565;28;20488;-80
2022/09/24 10:42:22;;;;;;;10.63;7.67;;;23.10;64.60;;;;;;5086457;28;20453;-81
2022/09/24 10:44:50;;;;;;;7.07;6.37;;;23.10;64.60;;;;;;5075645;28;20531;-81
2022/09/24 10:47:27;;;;;;;6.73;6.13;;;23.10;64.60;;;;;;5093683;28;20438;-80
2022/09/24 10:50:20;;;;;;;7.10;5.33;;;23.10;64.40;;;;;;5091555;28;20478;-81
2022/09/24 10:52:53;;;;;;;8.33;7.63;;;23.10;64.10;;;;;;5092349;28;20790;-81
2022/09/24 10:55:40;;;;;;;7.90;7.30;;;23.10;64.60;;;;;;5094443;28;20426;-81
2022/09/24 10:58:24;;;;;;;6.33;5.67;;;23.10;64.70;;;;;;5073797;28;20423;-81
2022/09/24 11:01:04;;;;;;;9.03;6.60;;;23.10;64.40;;;;;;5055956;28;20450;-81
2022/09/24 11:03:54;;;;;;;7.03;5.70;;;23.10;64.60;;;;;;5074161;28;20428;-82
2022/09/24 11:06:38;;;;;;;9.63;8.77;;;23.10;64.90;;;;;;5087129;28;20485;-82
2022/09/24 11:09:21;;;;;;;7.00;6.40;;;23.10;64.70;;;;;;5088962;28;20464;-80
2022/09/24 11:11:59;;;;;;;9.07;5.80;;;23.10;64.90;;;;;;5091536;28;20473;-80
2022/09/24 11:14:53;;;;;;;7.03;6.53;;;23.10;64.70;;;;;;5093012;28;20425;-81
2022/09/24 11:17:38;;;;;;;7.93;7.00;;;23.10;64.70;;;;;;5048226;28;20453;-81
2022/09/24 11:20:21;;;;;;;7.07;6.47;;;23.10;64.60;;;;;;5073225;28;20473;-81
2022/09/24 11:23:08;;;;;;;7.00;6.50;;;23.10;64.90;;;;;;5055194;28;20481;-81
2022/09/24 11:25:46;;;;;;;6.93;6.23;;;23.10;64.90;;;;;;5073182;28;20935;-81
2022/09/24 11:28:31;;;;;;;7.30;6.60;;;23.10;64.90;;;;;;5073203;28;20446;-81
2022/09/24 11:31:06;;;;;;;7.20;6.70;;;23.10;64.70;;;;;;5071520;28;20492;-81
2022/09/24 11:33:55;;;;;;;6.97;6.37;;;23.10;64.90;;;;;;5073073;28;20529;-82
2022/09/24 11:36:41;;;;;;;6.40;5.90;;;23.10;64.90;;;;;;5073370;28;20884;-82
2022/09/24 11:39:27;;;;;;;6.67;6.17;;;23.10;64.70;;;;;;5072639;28;20892;-81
2022/09/24 11:42:03;;;;;;;7.40;6.90;;;23.10;64.60;;;;;;5072019;28;20467;-82
2022/09/24 11:44:57;;;;;;;6.60;6.10;;;23.10;64.60;;;;;;5079433;28;20484;-81
2022/09/24 11:47:41;;;;;;;7.27;6.60;;;23.10;64.90;;;;;;5092522;28;20536;-81
2022/09/24 11:50:33;;;;;;;6.70;6.20;;;23.10;64.60;;;;;;5086426;28;20643;-81
2022/09/24 11:53:06;;;;;;;7.83;7.17;;;23.10;64.80;;;;;;5079039;28;20453;-82
2022/09/24 11:55:40;;;;;;;5.80;5.17;;;23.10;64.80;;;;;;5080309;28;20769;-82
2022/09/24 11:58:16;;;;;;;6.03;5.63;;;23.10;64.40;;;;;;5089352;28;20788;-81
2022/09/24 12:00:51;;;;;;;6.87;5.53;;;23.10;64.40;;;;;;5077168;28;20575;-81
2022/09/24 12:03:23;;;;;;;7.73;5.73;;;23.10;64.60;;;;;;5092643;28;20444;-81
2022/09/24 12:05:59;;;;;;;5.50;5.10;;;23.10;64.40;;;;;;5092271;28;20983;-81
2022/09/24 12:08:35;;;;;;;7.03;6.33;;;23.10;64.40;;;;;;5074350;28;20914;-81
2022/09/24 12:11:09;;;;;;;6.60;6.00;;;23.10;64.70;;;;;;5079828;28;20464;-81
2022/09/24 12:13:44;;;;;;;5.03;4.73;;;23.10;64.60;;;;;;5085239;28;20495;-79
2022/09/24 12:16:18;;;;;;;8.53;7.70;;;23.10;64.40;;;;;;5084286;28;20460;-81
2022/09/24 12:18:53;;;;;;;9.30;7.20;;;23.10;64.60;;;;;;5068691;28;20454;-81
2022/09/24 12:21:26;;;;;;;8.17;7.47;;;23.10;64.40;;;;;;5071782;28;20916;-81
2022/09/24 12:24:01;;;;;;;5.20;4.80;;;23.10;64.60;;;;;;5074058;28;20749;-81
2022/09/24 12:26:31;;;;;;;8.53;5.07;;;23.10;64.40;;;;;;5084712;28;20853;-81
2022/09/24 12:34:51;;;;;;;6.40;5.73;;;23.10;64.40;;;;;;5088760;28;20452;-80
2022/09/24 12:37:25;;;;;;;5.50;5.20;;;23.10;64.40;;;;;;5088442;28;20838;-80
2022/09/24 12:40:01;;;;;;;6.53;5.80;;;23.10;64.30;;;;;;5088254;28;20444;-81
2022/09/24 12:42:34;;;;;;;10.23;9.23;;;23.10;64.10;;;;;;5095904;28;20416;-80
2022/09/24 12:45:07;;;;;;;8.80;8.00;;;23.10;64.40;;;;;;5061981;28;20867;-81
2022/09/24 12:47:46;;;;;;;5.77;5.27;;;23.10;64.40;;;;;;5087836;28;20935;-81
2022/09/24 12:50:22;;;;;;;5.93;5.30;;;23.10;64.10;;;;;;5096878;28;20560;-82
2022/09/24 12:52:53;;;;;;;6.27;5.67;;;23.10;64.00;;;;;;5097440;28;20439;-80
2022/09/24 12:55:24;;;;;;;6.40;5.90;;;23.20;64.10;;;;;;5096907;28;20472;-81
2022/09/24 12:57:55;;;;;;;6.83;6.30;;;23.20;64.10;;;;;;5097009;28;20417;-80
2022/09/24 13:00:40;;;;;;;6.17;5.67;;;23.20;64.10;;;;;;5096757;28;20898;-80
2022/09/24 13:03:33;;;;;;;8.13;6.37;;;23.20;64.00;;;;;;5088133;28;20438;-81
2022/09/24 13:06:03;;;;;;;6.50;5.97;;;23.20;64.00;;;;;;5078782;28;20445;-81
2022/09/24 13:08:38;;;;;;;5.40;5.00;;;23.20;64.00;;;;;;5095672;28;20442;-80
2022/09/24 13:11:28;;;;;;;6.17;5.60;;;23.20;64.00;;;;;;5091729;28;20950;-81
2022/09/24 13:14:06;;;;;;;6.67;5.60;;;23.20;64.00;;;;;;5081508;28;20942;-81
2022/09/24 13:16:39;;;;;;;5.67;5.27;;;23.20;64.00;;;;;;5061726;28;20441;-81
2022/09/24 13:19:28;;;;;;;6.43;5.83;;;23.20;64.00;;;;;;5084943;28;20487;-80
2022/09/24 13:21:58;;;;;;;5.83;5.33;;;23.20;64.10;;;;;;5090192;28;20450;-81
2022/09/24 13:24:29;;;;;;;6.90;6.30;;;23.20;64.10;;;;;;5087090;28;20450;-81
2022/09/24 13:27:10;;;;;;;6.00;5.50;;;23.20;64.00;;;;;;5084386;28;20447;-81
2022/09/24 13:29:39;;;;;;;5.77;5.23;;;23.10;64.00;;;;;;5074285;28;20449;-81
2022/09/24 13:32:19;;;;;;;6.10;5.40;;;23.20;64.00;;;;;;5082780;28;20947;-81
2022/09/24 13:34:50;;;;;;;6.20;5.70;;;23.20;64.00;;;;;;5085547;28;20464;-81
2022/09/24 13:37:22;;;;;;;6.10;5.60;;;23.20;64.00;;;;;;5083392;28;20632;-81
2022/09/24 13:39:56;;;;;;;5.70;5.30;;;23.20;63.90;;;;;;5082791;28;20446;-80